sensor_id;sensor_type;location;lat;lon;timestamp;pressure;altitude;pressure_sealevel;temperature;humidity
48790;BME280;41718;51.980;5.734;2022-10-19T00:04:26;102700.31;;;4.56;100.00
48790;BME280;41718;51.980;5.734;2022-10-19T00:09:30;102703.84;;;4.58;100.00
48790;BME280;41718;51.980;5.734;2022-10-19T00:14:32;102696.50;;;4.62;100.00
48790;BME280;41718;51.980;5.734;2022-10-19T00:19:36;102692.00;;;4.71;100.00
48790;BME280;41718;51.980;5.734;2022-10-19T00:24:39;102697.06;;;4.83;100.00
48790;BME280;41718;51.980;5.734;2022-10-19T00:29:41;102690.03;;;4.81;100.00
48790;BME280;41718;51.980;5.734;2022-10-19T00:34:42;102687.06;;;4.74;100.00
48790;BME280;41718;51.980;5.734;2022-10-19T00:39:44;102691.78;;;4.68;100.00
48790;BME280;41718;51.980;5.734;2022-10-19T00:49:47;102695.59;;;4.25;100.00
48790;BME280;41718;51.980;5.734;2022-10-19T00:54:49;102706.63;;;4.24;100.00
48790;BME280;41718;51.980;5.734;2022-10-19T00:59:52;102704.09;;;4.12;100.00
48790;BME280;41718;51.980;5.734;2022-10-19T01:04:54;102693.47;;;4.19;100.00
48790;BME280;41718;51.980;5.734;2022-10-19T01:09:55;102694.53;;;4.10;100.00
48790;BME280;41718;51.980;5.734;2022-10-19T01:25:23;102673.00;;;4.19;100.00
48790;BME280;41718;51.980;5.734;2022-10-19T01:41:41;102666.59;;;3.89;100.00
48790;BME280;41718;51.980;5.734;2022-10-19T01:46:49;102651.59;;;3.82;100.00
48790;BME280;41718;51.980;5.734;2022-10-19T01:52:00;102653.63;;;3.75;100.00
48790;BME280;41718;51.980;5.734;2022-10-19T01:57:06;102649.16;;;3.72;100.00
48790;BME280;41718;51.980;5.734;2022-10-19T02:02:08;102648.28;;;3.71;100.00
48790;BME280;41718;51.980;5.734;2022-10-19T02:07:11;102649.50;;;3.53;100.00
48790;BME280;41718;51.980;5.734;2022-10-19T02:12:14;102652.72;;;3.62;100.00
48790;BME280;41718;51.980;5.734;2022-10-19T02:17:20;102654.03;;;3.57;100.00
48790;BME280;41718;51.980;5.734;2022-10-19T02:22:22;102650.94;;;3.50;100.00
48790;BME280;41718;51.980;5.734;2022-10-19T02:27:24;102656.59;;;3.45;100.00
48790;BME280;41718;51.980;5.734;2022-10-19T02:32:26;102659.06;;;3.44;100.00
48790;BME280;41718;51.980;5.734;2022-10-19T02:37:28;102659.94;;;3.44;100.00
48790;BME280;41718;51.980;5.734;2022-10-19T02:42:38;102650.84;;;3.36;100.00
48790;BME280;41718;51.980;5.734;2022-10-19T02:48:20;102654.19;;;3.35;100.00
48790;BME280;41718;51.980;5.734;2022-10-19T02:53:22;102651.19;;;3.29;100.00
48790;BME280;41718;51.980;5.734;2022-10-19T02:58:24;102641.94;;;3.31;100.00
48790;BME280;41718;51.980;5.734;2022-10-19T03:03:25;102634.91;;;3.29;100.00
48790;BME280;41718;51.980;5.734;2022-10-19T03:08:26;102628.72;;;3.25;100.00
48790;BME280;41718;51.980;5.734;2022-10-19T03:13:28;102633.81;;;3.25;100.00
48790;BME280;41718;51.980;5.734;2022-10-19T03:18:29;102622.03;;;3.27;100.00
48790;BME280;41718;51.980;5.734;2022-10-19T03:23:31;102630.59;;;3.28;100.00
48790;BME280;41718;51.980;5.734;2022-10-19T03:28:32;102626.44;;;3.06;100.00
48790;BME280;41718;51.980;5.734;2022-10-19T03:33:34;102611.47;;;3.23;100.00
48790;BME280;41718;51.980;5.734;2022-10-19T03:38:35;102604.56;;;3.10;100.00
48790;BME280;41718;51.980;5.734;2022-10-19T03:43:37;102610.56;;;3.10;100.00
48790;BME280;41718;51.980;5.734;2022-10-19T03:48:39;102612.31;;;3.00;100.00
48790;BME280;41718;51.980;5.734;2022-10-19T03:53:40;102617.78;;;2.92;100.00
48790;BME280;41718;51.980;5.734;2022-10-19T03:58:44;102614.22;;;2.90;100.00
48790;BME280;41718;51.980;5.734;2022-10-19T04:03:45;102615.28;;;2.82;100.00
48790;BME280;41718;51.980;5.734;2022-10-19T04:08:48;102612.06;;;2.73;100.00
48790;BME280;41718;51.980;5.734;2022-10-19T04:13:54;102615.06;;;2.68;100.00
48790;BME280;41718;51.980;5.734;2022-10-19T04:18:57;102620.38;;;2.71;100.00
48790;BME280;41718;51.980;5.734;2022-10-19T04:24:04;102606.94;;;2.61;100.00
48790;BME280;41718;51.980;5.734;2022-10-19T04:29:05;102612.22;;;2.53;100.00
48790;BME280;41718;51.980;5.734;2022-10-19T04:34:07;102614.25;;;2.57;100.00
48790;BME280;41718;51.980;5.734;2022-10-19T04:39:09;102613.47;;;2.58;100.00
48790;BME280;41718;51.980;5.734;2022-10-19T04:44:10;102608.34;;;2.58;100.00
48790;BME280;41718;51.980;5.734;2022-10-19T04:49:12;102610.47;;;2.63;100.00
48790;BME280;41718;51.980;5.734;2022-10-19T04:54:19;102619.38;;;2.69;100.00
48790;BME280;41718;51.980;5.734;2022-10-19T04:59:21;102620.13;;;2.56;100.00
48790;BME280;41718;51.980;5.734;2022-10-19T05:04:22;102625.66;;;2.50;100.00
48790;BME280;41718;51.980;5.734;2022-10-19T05:09:24;102626.13;;;2.56;100.00
48790;BME280;41718;51.980;5.734;2022-10-19T05:14:25;102621.03;;;2.56;100.00
48790;BME280;41718;51.980;5.734;2022-10-19T05:19:28;102610.56;;;2.53;100.00
48790;BME280;41718;51.980;5.734;2022-10-19T05:24:29;102614.31;;;2.47;100.00
48790;BME280;41718;51.980;5.734;2022-10-19T05:29:32;102620.09;;;2.44;100.00
48790;BME280;41718;51.980;5.734;2022-10-19T05:34:34;102612.44;;;2.44;100.00
48790;BME280;41718;51.980;5.734;2022-10-19T05:39:35;102605.09;;;2.49;100.00
48790;BME280;41718;51.980;5.734;2022-10-19T05:44:37;102602.53;;;2.49;100.00
48790;BME280;41718;51.980;5.734;2022-10-19T05:49:43;102594.00;;;2.26;100.00
48790;BME280;41718;51.980;5.734;2022-10-19T05:54:44;102594.38;;;2.31;100.00
48790;BME280;41718;51.980;5.734;2022-10-19T05:59:46;102599.38;;;2.29;100.00
48790;BME280;41718;51.980;5.734;2022-10-19T06:04:47;102597.72;;;2.08;100.00
48790;BME280;41718;51.980;5.734;2022-10-19T06:09:49;102603.34;;;2.04;100.00
48790;BME280;41718;51.980;5.734;2022-10-19T06:14:50;102603.28;;;2.14;100.00
48790;BME280;41718;51.980;5.734;2022-10-19T06:19:52;102598.38;;;2.27;100.00
48790;BME280;41718;51.980;5.734;2022-10-19T06:24:53;102612.41;;;2.10;100.00
48790;BME280;41718;51.980;5.734;2022-10-19T06:29:55;102609.28;;;2.15;100.00
48790;BME280;41718;51.980;5.734;2022-10-19T06:34:57;102611.91;;;2.04;100.00
48790;BME280;41718;51.980;5.734;2022-10-19T06:39:58;102607.25;;;2.32;100.00
48790;BME280;41718;51.980;5.734;2022-10-19T06:45:08;102611.13;;;2.27;100.00
48790;BME280;41718;51.980;5.734;2022-10-19T06:50:10;102607.03;;;2.29;100.00
48790;BME280;41718;51.980;5.734;2022-10-19T06:55:11;102603.03;;;2.66;100.00
48790;BME280;41718;51.980;5.734;2022-10-19T07:00:13;102603.28;;;2.70;100.00
48790;BME280;41718;51.980;5.734;2022-10-19T07:05:15;102600.41;;;2.88;100.00
48790;BME280;41718;51.980;5.734;2022-10-19T07:10:16;102599.09;;;3.05;100.00
48790;BME280;41718;51.980;5.734;2022-10-19T07:15:18;102586.91;;;3.01;100.00
48790;BME280;41718;51.980;5.734;2022-10-19T07:20:19;102580.31;;;3.52;100.00
48790;BME280;41718;51.980;5.734;2022-10-19T07:25:21;102566.72;;;3.76;100.00
48790;BME280;41718;51.980;5.734;2022-10-19T07:30:22;102573.25;;;4.21;100.00
48790;BME280;41718;51.980;5.734;2022-10-19T07:35:24;102565.63;;;4.47;100.00
48790;BME280;41718;51.980;5.734;2022-10-19T07:40:25;102570.34;;;4.93;100.00
48790;BME280;41718;51.980;5.734;2022-10-19T07:45:26;102561.72;;;5.17;100.00
48790;BME280;41718;51.980;5.734;2022-10-19T07:50:28;102564.84;;;5.40;100.00
48790;BME280;41718;51.980;5.734;2022-10-19T07:55:29;102551.78;;;5.50;100.00
48790;BME280;41718;51.980;5.734;2022-10-19T08:00:31;102537.88;;;5.88;100.00
48790;BME280;41718;51.980;5.734;2022-10-19T08:05:33;102540.94;;;6.23;100.00
48790;BME280;41718;51.980;5.734;2022-10-19T08:10:35;102550.72;;;6.44;100.00
48790;BME280;41718;51.980;5.734;2022-10-19T08:15:36;102552.50;;;6.74;100.00
48790;BME280;41718;51.980;5.734;2022-10-19T08:20:42;102541.94;;;6.99;100.00
48790;BME280;41718;51.980;5.734;2022-10-19T08:25:44;102535.81;;;7.12;100.00
48790;BME280;41718;51.980;5.734;2022-10-19T08:30:45;102542.22;;;7.66;100.00
48790;BME280;41718;51.980;5.734;2022-10-19T08:35:47;102531.84;;;7.81;100.00
48790;BME280;41718;51.980;5.734;2022-10-19T08:40:48;102517.91;;;8.10;100.00
48790;BME280;41718;51.980;5.734;2022-10-19T09:10:40;102493.88;;;9.50;100.00
48790;BME280;41718;51.980;5.734;2022-10-19T09:15:52;102482.00;;;9.54;100.00
48790;BME280;41718;51.980;5.734;2022-10-19T09:21:14;102488.59;;;9.86;100.00
48790;BME280;41718;51.980;5.734;2022-10-19T09:26:19;102492.88;;;10.05;100.00
48790;BME280;41718;51.980;5.734;2022-10-19T09:31:37;102497.50;;;10.12;100.00
48790;BME280;41718;51.980;5.734;2022-10-19T09:36:44;102518.00;;;10.27;100.00
48790;BME280;41718;51.980;5.734;2022-10-19T09:41:55;102542.91;;;10.44;100.00
48790;BME280;41718;51.980;5.734;2022-10-19T09:52:43;102570.94;;;10.75;100.00
48790;BME280;41718;51.980;5.734;2022-10-19T09:57:58;102584.78;;;10.76;100.00
48790;BME280;41718;51.980;5.734;2022-10-19T10:03:02;102594.88;;;10.70;100.00
48790;BME280;41718;51.980;5.734;2022-10-19T10:08:25;102591.66;;;10.75;100.00
48790;BME280;41718;51.980;5.734;2022-10-19T10:13:29;102568.88;;;10.87;100.00
48790;BME280;41718;51.980;5.734;2022-10-19T10:18:52;102567.06;;;11.28;100.00
48790;BME280;41718;51.980;5.734;2022-10-19T10:24:28;102573.97;;;11.50;100.00
48790;BME280;41718;51.980;5.734;2022-10-19T10:29:35;102577.16;;;11.86;100.00
48790;BME280;41718;51.980;5.734;2022-10-19T10:35:15;102575.72;;;12.42;100.00
48790;BME280;41718;51.980;5.734;2022-10-19T10:40:32;102563.56;;;13.19;100.00
48790;BME280;41718;51.980;5.734;2022-10-19T10:46:00;102558.34;;;13.18;100.00
48790;BME280;41718;51.980;5.734;2022-10-19T10:51:44;102550.06;;;13.30;100.00
48790;BME280;41718;51.980;5.734;2022-10-19T11:02:38;102548.53;;;13.36;100.00
48790;BME280;41718;51.980;5.734;2022-10-19T11:08:23;102517.91;;;14.16;100.00
48790;BME280;41718;51.980;5.734;2022-10-19T11:13:39;102503.81;;;14.08;100.00
48790;BME280;41718;51.980;5.734;2022-10-19T11:18:55;102494.03;;;13.99;100.00
48790;BME280;41718;51.980;5.734;2022-10-19T11:40:51;102468.66;;;13.61;100.00
48790;BME280;41718;51.980;5.734;2022-10-19T11:46:24;102449.75;;;13.98;100.00
48790;BME280;41718;51.980;5.734;2022-10-19T11:51:44;102450.53;;;13.62;100.00
48790;BME280;41718;51.980;5.734;2022-10-19T11:56:59;102449.59;;;13.92;100.00
48790;BME280;41718;51.980;5.734;2022-10-19T12:13:43;102432.75;;;13.47;100.00
48790;BME280;41718;51.980;5.734;2022-10-19T12:18:58;102421.03;;;13.32;100.00
48790;BME280;41718;51.980;5.734;2022-10-19T12:24:13;102406.94;;;13.55;100.00
48790;BME280;41718;51.980;5.734;2022-10-19T12:29:37;102398.69;;;13.38;100.00
48790;BME280;41718;51.980;5.734;2022-10-19T12:35:03;102390.84;;;13.37;100.00
48790;BME280;41718;51.980;5.734;2022-10-19T12:40:19;102392.94;;;13.50;100.00
48790;BME280;41718;51.980;5.734;2022-10-19T12:45:40;102372.69;;;13.10;100.00
48790;BME280;41718;51.980;5.734;2022-10-19T12:56:02;102342.84;;;13.24;100.00
48790;BME280;41718;51.980;5.734;2022-10-19T13:01:05;102338.84;;;13.37;100.00
48790;BME280;41718;51.980;5.734;2022-10-19T13:06:14;102320.53;;;13.32;100.00
48790;BME280;41718;51.980;5.734;2022-10-19T13:11:18;102316.78;;;13.54;100.00
48790;BME280;41718;51.980;5.734;2022-10-19T13:26:46;102288.78;;;13.44;100.00
48790;BME280;41718;51.980;5.734;2022-10-19T13:31:47;102287.88;;;13.42;100.00
48790;BME280;41718;51.980;5.734;2022-10-19T13:37:02;102282.03;;;13.19;100.00
48790;BME280;41718;51.980;5.734;2022-10-19T13:42:03;102269.56;;;13.07;100.00
48790;BME280;41718;51.980;5.734;2022-10-19T13:47:20;102261.13;;;13.16;100.00
48790;BME280;41718;51.980;5.734;2022-10-19T14:04:15;102258.09;;;12.99;100.00
48790;BME280;41718;51.980;5.734;2022-10-19T14:14:22;102252.63;;;12.90;100.00
48790;BME280;41718;51.980;5.734;2022-10-19T14:19:39;102249.75;;;12.79;100.00
48790;BME280;41718;51.980;5.734;2022-10-19T14:24:41;102260.69;;;12.69;100.00
48790;BME280;41718;51.980;5.734;2022-10-19T14:29:46;102263.81;;;12.57;100.00
48790;BME280;41718;51.980;5.734;2022-10-19T14:34:48;102262.56;;;12.44;100.00
48790;BME280;41718;51.980;5.734;2022-10-19T14:40:21;102261.56;;;12.39;100.00
48790;BME280;41718;51.980;5.734;2022-10-19T14:45:30;102254.31;;;12.29;100.00
48790;BME280;41718;51.980;5.734;2022-10-19T14:50:55;102255.69;;;12.18;100.00
48790;BME280;41718;51.980;5.734;2022-10-19T14:56:25;102241.50;;;12.07;100.00
48790;BME280;41718;51.980;5.734;2022-10-19T15:01:32;102242.06;;;11.97;100.00
48790;BME280;41718;51.980;5.734;2022-10-19T15:06:46;102239.34;;;11.92;100.00
48790;BME280;41718;51.980;5.734;2022-10-19T15:11:58;102243.19;;;12.05;100.00
48790;BME280;41718;51.980;5.734;2022-10-19T15:17:28;102225.06;;;12.06;100.00
48790;BME280;41718;51.980;5.734;2022-10-19T15:22:39;102219.34;;;12.16;100.00
48790;BME280;41718;51.980;5.734;2022-10-19T15:39:20;102189.19;;;11.91;100.00
48790;BME280;41718;51.980;5.734;2022-10-19T15:44:48;102180.88;;;11.76;100.00
48790;BME280;41718;51.980;5.734;2022-10-19T15:50:01;102189.50;;;11.75;100.00
48790;BME280;41718;51.980;5.734;2022-10-19T15:55:03;102170.66;;;11.54;100.00
48790;BME280;41718;51.980;5.734;2022-10-19T16:00:25;102159.06;;;11.43;100.00
48790;BME280;41718;51.980;5.734;2022-10-19T16:05:53;102156.78;;;11.26;100.00
48790;BME280;41718;51.980;5.734;2022-10-19T16:11:09;102166.56;;;11.08;100.00
48790;BME280;41718;51.980;5.734;2022-10-19T16:16:21;102155.91;;;11.00;100.00
48790;BME280;41718;51.980;5.734;2022-10-19T16:21:32;102147.81;;;10.90;100.00
48790;BME280;41718;51.980;5.734;2022-10-19T16:26:59;102144.25;;;10.87;100.00
48790;BME280;41718;51.980;5.734;2022-10-19T16:32:01;102133.69;;;10.81;100.00
48790;BME280;41718;51.980;5.734;2022-10-19T16:37:05;102142.75;;;10.69;100.00
48790;BME280;41718;51.980;5.734;2022-10-19T16:42:11;102135.53;;;10.60;100.00
48790;BME280;41718;51.980;5.734;2022-10-19T16:47:15;102137.44;;;10.42;100.00
48790;BME280;41718;51.980;5.734;2022-10-19T16:52:17;102140.88;;;10.41;100.00
48790;BME280;41718;51.980;5.734;2022-10-19T16:57:19;102135.69;;;10.41;100.00
48790;BME280;41718;51.980;5.734;2022-10-19T17:02:40;102126.44;;;10.23;100.00
48790;BME280;41718;51.980;5.734;2022-10-19T17:07:52;102133.38;;;10.24;100.00
48790;BME280;41718;51.980;5.734;2022-10-19T17:12:58;102126.88;;;10.13;100.00
48790;BME280;41718;51.980;5.734;2022-10-19T17:18:05;102111.59;;;10.19;100.00
48790;BME280;41718;51.980;5.734;2022-10-19T17:23:06;102106.44;;;10.19;100.00
48790;BME280;41718;51.980;5.734;2022-10-19T17:28:15;102092.56;;;10.17;100.00
48790;BME280;41718;51.980;5.734;2022-10-19T17:33:20;102102.09;;;10.18;100.00
48790;BME280;41718;51.980;5.734;2022-10-19T17:38:22;102104.53;;;10.15;100.00
48790;BME280;41718;51.980;5.734;2022-10-19T17:43:31;102091.59;;;10.15;100.00
48790;BME280;41718;51.980;5.734;2022-10-19T17:48:37;102081.56;;;10.23;100.00
48790;BME280;41718;51.980;5.734;2022-10-19T17:54:07;102072.72;;;10.16;100.00
48790;BME280;41718;51.980;5.734;2022-10-19T17:59:14;102082.94;;;10.13;100.00
48790;BME280;41718;51.980;5.734;2022-10-19T18:04:45;102083.75;;;10.12;100.00
48790;BME280;41718;51.980;5.734;2022-10-19T18:09:57;102083.72;;;10.11;100.00
48790;BME280;41718;51.980;5.734;2022-10-19T18:15:03;102072.25;;;10.04;100.00
48790;BME280;41718;51.980;5.734;2022-10-19T18:20:15;102076.25;;;9.96;100.00
48790;BME280;41718;51.980;5.734;2022-10-19T18:25:26;102091.06;;;10.00;100.00
48790;BME280;41718;51.980;5.734;2022-10-19T18:30:53;102106.34;;;9.94;100.00
48790;BME280;41718;51.980;5.734;2022-10-19T18:36:07;102099.44;;;9.93;100.00
48790;BME280;41718;51.980;5.734;2022-10-19T18:41:10;102091.13;;;9.79;100.00
48790;BME280;41718;51.980;5.734;2022-10-19T18:46:12;102075.44;;;9.74;100.00
48790;BME280;41718;51.980;5.734;2022-10-19T18:51:14;102064.06;;;9.69;100.00
48790;BME280;41718;51.980;5.734;2022-10-19T18:56:21;102059.47;;;9.62;100.00
48790;BME280;41718;51.980;5.734;2022-10-19T19:01:29;102052.50;;;9.60;100.00
48790;BME280;41718;51.980;5.734;2022-10-19T19:06:31;102042.91;;;9.57;100.00
48790;BME280;41718;51.980;5.734;2022-10-19T19:11:44;102044.38;;;9.50;100.00
48790;BME280;41718;51.980;5.734;2022-10-19T19:17:09;102044.44;;;9.52;100.00
48790;BME280;41718;51.980;5.734;2022-10-19T19:22:15;102028.47;;;9.40;100.00
48790;BME280;41718;51.980;5.734;2022-10-19T19:27:20;102032.03;;;9.42;100.00
48790;BME280;41718;51.980;5.734;2022-10-19T19:32:33;102026.47;;;9.33;100.00
48790;BME280;41718;51.980;5.734;2022-10-19T19:37:35;102010.69;;;9.25;100.00
48790;BME280;41718;51.980;5.734;2022-10-19T19:42:37;101993.03;;;9.13;100.00
48790;BME280;41718;51.980;5.734;2022-10-19T19:47:50;101977.53;;;9.13;100.00
48790;BME280;41718;51.980;5.734;2022-10-19T19:52:53;101976.00;;;9.18;100.00
48790;BME280;41718;51.980;5.734;2022-10-19T19:57:56;101962.69;;;9.08;100.00
48790;BME280;41718;51.980;5.734;2022-10-19T20:03:02;101966.16;;;9.08;100.00
48790;BME280;41718;51.980;5.734;2022-10-19T20:08:16;101939.84;;;8.96;100.00
48790;BME280;41718;51.980;5.734;2022-10-19T20:13:23;101949.28;;;8.95;100.00
48790;BME280;41718;51.980;5.734;2022-10-19T20:18:28;101935.59;;;8.96;100.00
48790;BME280;41718;51.980;5.734;2022-10-19T20:23:36;101922.75;;;8.98;100.00
48790;BME280;41718;51.980;5.734;2022-10-19T20:28:44;101920.56;;;8.86;100.00
48790;BME280;41718;51.980;5.734;2022-10-19T20:33:48;101915.31;;;8.85;100.00
48790;BME280;41718;51.980;5.734;2022-10-19T20:38:56;101917.03;;;8.84;100.00
48790;BME280;41718;51.980;5.734;2022-10-19T20:44:04;101917.03;;;8.84;100.00
48790;BME280;41718;51.980;5.734;2022-10-19T20:49:08;101905.47;;;8.74;100.00
48790;BME280;41718;51.980;5.734;2022-10-19T20:54:14;101883.19;;;8.76;100.00
48790;BME280;41718;51.980;5.734;2022-10-19T20:59:21;101866.00;;;8.77;100.00
48790;BME280;41718;51.980;5.734;2022-10-19T21:04:31;101858.00;;;8.69;100.00
48790;BME280;41718;51.980;5.734;2022-10-19T21:09:36;101856.88;;;8.63;100.00
48790;BME280;41718;51.980;5.734;2022-10-19T21:14:44;101854.75;;;8.75;100.00
48790;BME280;41718;51.980;5.734;2022-10-19T21:19:46;101865.59;;;8.66;100.00
48790;BME280;41718;51.980;5.734;2022-10-19T21:24:49;101866.47;;;8.67;100.00
48790;BME280;41718;51.980;5.734;2022-10-19T21:29:56;101858.91;;;8.71;100.00
48790;BME280;41718;51.980;5.734;2022-10-19T21:35:01;101859.69;;;8.69;100.00
48790;BME280;41718;51.980;5.734;2022-10-19T21:40:03;101857.50;;;8.57;100.00
48790;BME280;41718;51.980;5.734;2022-10-19T21:45:09;101853.34;;;8.61;100.00
48790;BME280;41718;51.980;5.734;2022-10-19T21:50:29;101845.25;;;8.52;100.00
48790;BME280;41718;51.980;5.734;2022-10-19T21:55:32;101850.09;;;8.44;100.00
48790;BME280;41718;51.980;5.734;2022-10-19T22:00:39;101832.00;;;8.42;100.00
48790;BME280;41718;51.980;5.734;2022-10-19T22:05:57;101836.22;;;8.40;100.00
48790;BME280;41718;51.980;5.734;2022-10-19T22:11:10;101835.13;;;8.35;100.00
48790;BME280;41718;51.980;5.734;2022-10-19T22:16:18;101826.19;;;8.27;100.00
48790;BME280;41718;51.980;5.734;2022-10-19T22:21:28;101820.09;;;8.25;100.00
48790;BME280;41718;51.980;5.734;2022-10-19T22:26:36;101808.63;;;8.17;100.00
48790;BME280;41718;51.980;5.734;2022-10-19T22:31:41;101810.03;;;8.10;100.00
48790;BME280;41718;51.980;5.734;2022-10-19T22:36:43;101795.53;;;8.12;100.00
48790;BME280;41718;51.980;5.734;2022-10-19T22:47:44;101775.22;;;7.99;100.00
48790;BME280;41718;51.980;5.734;2022-10-19T22:52:48;101756.66;;;8.06;100.00
48790;BME280;41718;51.980;5.734;2022-10-19T22:57:50;101765.94;;;8.03;100.00
48790;BME280;41718;51.980;5.734;2022-10-19T23:02:53;101744.00;;;7.91;100.00
48790;BME280;41718;51.980;5.734;2022-10-19T23:07:59;101723.69;;;7.99;100.00
48790;BME280;41718;51.980;5.734;2022-10-19T23:13:05;101716.84;;;8.00;100.00
48790;BME280;41718;51.980;5.734;2022-10-19T23:18:20;101710.66;;;7.94;100.00
48790;BME280;41718;51.980;5.734;2022-10-19T23:23:25;101718.50;;;7.97;100.00
48790;BME280;41718;51.980;5.734;2022-10-19T23:28:33;101705.50;;;7.94;100.00
48790;BME280;41718;51.980;5.734;2022-10-19T23:33:35;101701.38;;;8.00;100.00
48790;BME280;41718;51.980;5.734;2022-10-19T23:38:43;101693.91;;;8.06;100.00
48790;BME280;41718;51.980;5.734;2022-10-19T23:43:46;101688.34;;;8.17;100.00
48790;BME280;41718;51.980;5.734;2022-10-19T23:48:48;101679.91;;;8.21;100.00
48790;BME280;41718;51.980;5.734;2022-10-19T23:53:51;101677.16;;;8.17;100.00
48790;BME280;41718;51.980;5.734;2022-10-19T23:58:54;101674.75;;;8.21;100.00
